• Join FlightAware (Why Join?)
  • Login
  • US Flag 
08:03AM EDT


 

Airport Tracker/Info


-or-


 

Live Flight TrackerFlight Track Log ✈ GLA10 ✈ 04-May-2012 ✈ KDEN - KCYS

Flight Track Log - Related Links

Times and Time Zones

All times are in EDT time to prevent confusion due to time zone crossing. See the GLA10 flight status page for this flight to view local times or setup timezone preferences in your user account.

Time Position Orientation Groundspeed Altitude Reporting Facility
EDT Latitude Longitude Course Direction KTS MPH feet Rate Location/Type
09:09AM 39.8500 -104.7833 288° West 187 215 8,300  Level Denver TRACON
09:10AM 39.8667 -104.8500 303° West 184 212 10,000 1,620 Climbing Denver TRACON
09:11AM 39.9000 -104.9167 349° North 228 262 11,400 960 Climbing Denver TRACON
09:12AM 39.9667 -104.9333 360° North 241 277 12,100 300 Climbing Denver TRACON
09:13AM 40.0333 -104.9333 360° North 269 310 12,000 -60 Descending Denver TRACON
09:14AM 40.1000 -104.9333 11° North 277 319 12,000  Level Denver TRACON
09:15AM 40.1667 -104.9167 360° North 274 315 12,000  Level Denver TRACON
09:15AM 40.2500 -104.9167 11° North 280 322 12,000  Level Denver TRACON
09:16AM 40.3167 -104.9000 360° North 281 323 12,100  Climbing Denver TRACON
09:17AM 40.4000 -104.9000 360° North 275 316 12,000 -60 Descending Denver TRACON
09:18AM 40.4500 -104.9000 North 274 315 12,000  Level Denver TRACON
09:19AM 40.5333 -104.8833 14° North 275 316 12,000  Level Denver TRACON
09:20AM 40.5833 -104.8667 North 275 316 12,000  Level Denver TRACON
09:21AM 40.6667 -104.8500 11° North 267 307 12,000 -60 Level Denver TRACON
09:22AM 40.7333 -104.8333 11° North 244 281 11,900 -420 Descending Denver TRACON
09:23AM 40.8000 -104.8167 360° North 242 278 11,200 -780 Descending Denver TRACON
09:24AM 40.8500 -104.8167 360° North 232 267 10,400 -660 Descending Denver TRACON
09:25AM 40.9167 -104.8167 21° North 242 278 9,900 -660 Descending Denver TRACON
09:26AM 40.9833 -104.7833 11° North 257 296 9,100 -840 Descending Denver TRACON
09:27AM 41.0500 -104.7667 11° North 242 278 8,300 -900 Descending Denver TRACON
09:28AM 41.1167 -104.7500 11° North 209 241 7,400 -900 Descending Denver TRACON